createdAt,value
2023-01-03T00:02:05.599Z,101766.53
2023-01-03T00:04:32.614Z,101770.94
2023-01-03T00:06:59.380Z,101773.38
2023-01-03T00:09:25.876Z,101770.00
2023-01-03T00:12:12.150Z,101775.28
2023-01-03T00:14:40.393Z,101781.34
2023-01-03T00:17:08.210Z,101783.91
2023-01-03T00:19:36.754Z,101782.41
2023-01-03T00:22:03.957Z,101788.31
2023-01-03T00:24:31.242Z,101787.31
2023-01-03T00:26:58.491Z,101795.41
2023-01-03T00:29:27.015Z,101797.38
2023-01-03T00:31:54.171Z,101794.41
2023-01-03T00:34:21.922Z,101798.91
2023-01-03T00:36:49.331Z,101813.47
2023-01-03T00:39:16.819Z,101817.44
2023-01-03T00:41:43.654Z,101819.88
2023-01-03T00:44:12.699Z,101831.22
2023-01-03T00:46:40.558Z,101834.31
2023-01-03T00:49:08.137Z,101834.69
2023-01-03T00:51:35.725Z,101834.88
2023-01-03T00:54:03.262Z,101841.34
2023-01-03T00:56:32.187Z,101844.25
2023-01-03T00:58:59.768Z,101844.16
2023-01-03T01:01:32.804Z,101848.75
2023-01-03T01:04:11.690Z,101849.81
2023-01-03T01:06:40.065Z,101843.31
2023-01-03T01:09:07.961Z,101851.25
2023-01-03T01:11:35.740Z,101858.44
2023-01-03T01:14:02.555Z,101853.69
2023-01-03T01:16:30.424Z,101859.34
2023-01-03T01:18:59.303Z,101861.75
2023-01-03T01:21:27.768Z,101865.91
2023-01-03T01:23:54.778Z,101871.09
2023-01-03T01:26:23.021Z,101869.81
2023-01-03T01:28:50.346Z,101877.38
2023-01-03T01:31:19.793Z,101879.63
2023-01-03T01:33:48.470Z,101883.47
2023-01-03T01:36:19.858Z,101889.28
2023-01-03T01:38:47.823Z,101892.88
2023-01-03T01:41:15.990Z,101893.38
2023-01-03T01:44:15.856Z,101890.81
2023-01-03T01:46:42.839Z,101895.13
2023-01-03T01:49:13.511Z,101901.75
2023-01-03T01:51:40.656Z,101908.81
2023-01-03T01:54:08.438Z,101908.75
2023-01-03T01:56:38.684Z,101918.38
2023-01-03T01:59:06.484Z,101922.06
2023-01-03T02:01:34.379Z,101921.72
2023-01-03T02:04:05.909Z,101913.81
2023-01-03T02:06:33.719Z,101921.06
2023-01-03T02:09:01.857Z,101920.97
2023-01-03T02:11:47.508Z,101912.81
2023-01-03T02:14:23.281Z,101920.16
2023-01-03T02:17:08.006Z,101930.19
2023-01-03T02:19:49.525Z,101929.47
2023-01-03T02:22:35.410Z,101928.06
2023-01-03T02:25:22.128Z,101929.59
2023-01-03T02:27:51.983Z,101932.94
2023-01-03T02:30:21.634Z,101934.75
2023-01-03T02:32:53.735Z,101935.22
2023-01-03T02:35:53.612Z,101940.63
2023-01-03T02:38:55.830Z,101944.78
2023-01-03T02:41:41.164Z,101943.09
2023-01-03T02:44:10.792Z,101946.69
2023-01-03T02:46:57.699Z,101952.78
2023-01-03T02:49:32.430Z,101963.88
2023-01-03T02:52:02.008Z,101958.25
2023-01-03T02:54:30.892Z,101959.69
2023-01-03T02:56:57.440Z,101967.25
2023-01-03T02:59:29.844Z,101964.84
2023-01-03T03:01:57.389Z,101956.81
2023-01-03T03:04:24.813Z,101961.88
2023-01-03T03:07:14.177Z,101964.84
2023-01-03T03:09:59.238Z,101967.16
2023-01-03T03:12:46.914Z,101970.22
2023-01-03T03:15:15.725Z,101974.91
2023-01-03T03:17:42.836Z,101971.03
2023-01-03T03:20:34.774Z,101977.63
2023-01-03T03:23:23.510Z,101973.94
2023-01-03T03:25:52.224Z,101984.66
2023-01-03T03:28:36.743Z,101985.44
2023-01-03T03:31:09.382Z,101985.19
2023-01-03T03:33:39.636Z,101983.25
2023-01-03T03:36:11.036Z,101984.03
2023-01-03T03:38:40.919Z,101992.75
2023-01-03T03:41:41.558Z,101993.03
2023-01-03T03:44:31.789Z,101987.00
2023-01-03T03:47:04.679Z,101987.59
2023-01-03T03:49:39.648Z,101993.81
2023-01-03T03:52:14.899Z,101998.16
2023-01-03T03:54:44.701Z,102003.53
2023-01-03T03:57:15.469Z,101991.94
2023-01-03T03:59:44.959Z,101998.59
2023-01-03T04:02:13.501Z,102007.88
2023-01-03T04:04:43.368Z,101999.06
2023-01-03T04:07:10.081Z,102001.19
2023-01-03T04:09:36.987Z,101996.69
2023-01-03T04:12:03.987Z,102001.75
2023-01-03T04:14:30.503Z,101999.31
2023-01-03T04:16:57.332Z,102007.63
2023-01-03T04:19:24.086Z,102009.03
2023-01-03T04:21:50.877Z,102013.41
2023-01-03T04:24:20.142Z,102016.31
2023-01-03T04:26:46.954Z,102021.34
2023-01-03T04:29:14.090Z,102027.81
2023-01-03T04:31:41.608Z,102027.84
2023-01-03T04:34:09.236Z,102028.25
2023-01-03T04:36:36.387Z,102026.44
2023-01-03T04:39:03.413Z,102035.41
2023-01-03T04:41:30.708Z,102033.44
2023-01-03T04:44:04.151Z,102044.59
2023-01-03T04:46:31.896Z,102036.78
2023-01-03T04:49:00.309Z,102035.28
2023-01-03T04:51:28.452Z,102034.84
2023-01-03T04:53:55.573Z,102038.72
2023-01-03T04:56:29.398Z,102046.59
2023-01-03T04:58:56.293Z,102043.84
2023-01-03T05:01:23.413Z,102053.13
2023-01-03T05:03:50.921Z,102045.50
2023-01-03T05:06:19.342Z,102059.84
2023-01-03T05:08:47.330Z,102063.63
2023-01-03T05:11:14.200Z,102065.34
2023-01-03T05:13:41.577Z,102059.94
2023-01-03T05:16:10.150Z,102066.50
2023-01-03T05:18:37.654Z,102059.78
2023-01-03T05:21:26.982Z,102061.94
2023-01-03T05:24:12.161Z,102060.78
2023-01-03T05:26:40.343Z,102069.63
2023-01-03T05:29:07.730Z,102080.03
2023-01-03T05:31:34.400Z,102063.97
2023-01-03T05:34:01.493Z,102069.84
2023-01-03T05:36:28.089Z,102061.16
2023-01-03T05:38:55.819Z,102066.56
2023-01-03T05:41:45.038Z,102069.94
2023-01-03T05:44:11.476Z,102075.19
2023-01-03T05:46:38.155Z,102072.31
2023-01-03T05:49:05.900Z,102071.06
2023-01-03T05:51:32.341Z,102085.59
2023-01-03T05:53:58.847Z,102083.44
2023-01-03T05:56:25.520Z,102082.06
2023-01-03T05:58:52.233Z,102074.44
2023-01-03T06:01:19.241Z,102082.34
2023-01-03T06:03:46.632Z,102089.47
2023-01-03T06:06:14.028Z,102083.22
2023-01-03T06:08:41.629Z,102089.06
2023-01-03T06:11:08.805Z,102090.94
2023-01-03T06:13:36.116Z,102084.44
2023-01-03T06:16:25.984Z,102089.69
2023-01-03T06:18:52.486Z,102091.28
2023-01-03T06:21:19.384Z,102108.19
2023-01-03T06:23:47.567Z,102104.47
2023-01-03T06:26:18.399Z,102108.75
2023-01-03T06:28:45.162Z,102108.84
2023-01-03T06:31:12.638Z,102109.41
2023-01-03T06:33:39.771Z,102111.13
2023-01-03T06:36:07.970Z,102117.91
2023-01-03T06:38:35.938Z,102109.06
2023-01-03T06:41:03.032Z,102113.19
2023-01-03T06:43:29.846Z,102112.72
2023-01-03T06:46:16.328Z,102116.09
2023-01-03T06:49:01.537Z,102115.19
2023-01-03T06:51:46.995Z,102126.25
2023-01-03T06:54:24.004Z,102124.59
2023-01-03T06:56:50.871Z,102141.88
2023-01-03T06:59:17.902Z,102136.03
2023-01-03T07:01:45.014Z,102140.13
2023-01-03T07:04:12.283Z,102147.72
2023-01-03T07:06:39.333Z,102151.25
2023-01-03T07:09:05.866Z,102156.25
2023-01-03T07:11:32.570Z,102160.25
2023-01-03T07:13:59.626Z,102154.66
2023-01-03T07:16:29.632Z,102156.78
2023-01-03T07:18:57.027Z,102165.63
2023-01-03T07:21:28.386Z,102173.88
2023-01-03T07:23:56.088Z,102171.78
2023-01-03T07:26:24.415Z,102184.56
2023-01-03T07:28:51.593Z,102189.53
2023-01-03T07:31:18.400Z,102188.03
2023-01-03T07:33:45.507Z,102190.72
2023-01-03T07:36:13.032Z,102191.81
2023-01-03T07:38:40.616Z,102189.16
2023-01-03T07:41:10.003Z,102191.97
2023-01-03T07:43:37.734Z,102194.41
2023-01-03T07:46:40.146Z,102203.72
2023-01-03T07:49:11.523Z,102207.28
2023-01-03T07:51:38.594Z,102205.06
2023-01-03T07:54:05.232Z,102213.13
2023-01-03T07:56:32.126Z,102221.59
2023-01-03T07:58:59.822Z,102217.91
2023-01-03T08:01:26.967Z,102227.38
2023-01-03T08:03:54.019Z,102223.25
2023-01-03T08:06:21.938Z,102225.38
2023-01-03T08:09:11.229Z,102226.47
2023-01-03T08:11:56.679Z,102225.06
2023-01-03T08:14:26.117Z,102219.88
2023-01-03T08:16:53.756Z,102228.16
2023-01-03T08:19:20.566Z,102224.91
2023-01-03T08:21:47.420Z,102221.97
2023-01-03T08:24:14.319Z,102227.59
2023-01-03T08:26:41.068Z,102236.59
2023-01-03T08:29:09.022Z,102236.47
2023-01-03T08:31:38.934Z,102236.38
2023-01-03T08:34:16.123Z,102240.06
2023-01-03T08:36:48.143Z,102237.53
2023-01-03T08:39:17.197Z,102233.13
2023-01-03T08:41:46.721Z,102237.22
2023-01-03T08:44:14.140Z,102242.56
2023-01-03T08:46:43.984Z,102246.09
2023-01-03T08:49:12.012Z,102248.00
2023-01-03T08:51:39.546Z,102252.50
2023-01-03T08:54:06.314Z,102252.72
2023-01-03T08:56:34.746Z,102253.53
2023-01-03T08:59:01.524Z,102258.03
2023-01-03T09:01:28.286Z,102254.84
2023-01-03T09:03:55.103Z,102258.72
2023-01-03T09:06:21.793Z,102260.22
2023-01-03T09:08:48.419Z,102261.50
2023-01-03T09:11:14.964Z,102273.50
2023-01-03T09:13:41.937Z,102259.31
2023-01-03T09:16:10.421Z,102269.00
2023-01-03T09:18:38.308Z,102270.91
2023-01-03T09:21:06.631Z,102266.41
2023-01-03T09:23:34.819Z,102276.31
2023-01-03T09:26:02.376Z,102279.53
2023-01-03T09:28:30.047Z,102278.84
2023-01-03T09:30:58.547Z,102290.75
2023-01-03T09:33:26.343Z,102292.50
2023-01-03T09:35:56.792Z,102304.66
2023-01-03T09:38:24.084Z,102297.41
2023-01-03T09:41:02.712Z,102304.56
2023-01-03T09:43:34.412Z,102310.78
2023-01-03T09:46:03.134Z,102310.28
2023-01-03T09:48:33.421Z,102306.25
2023-01-03T09:51:21.144Z,102311.88
2023-01-03T09:54:05.807Z,102303.97
2023-01-03T09:56:51.554Z,102312.41
2023-01-03T09:59:54.973Z,102318.53
2023-01-03T10:03:01.039Z,102311.97
2023-01-03T10:05:39.530Z,102310.09
2023-01-03T10:08:06.434Z,102306.28
2023-01-03T10:10:39.709Z,102307.63
2023-01-03T10:13:06.426Z,102314.19
2023-01-03T10:15:51.828Z,102309.38
2023-01-03T10:18:37.102Z,102303.03
2023-01-03T10:21:09.563Z,102298.78
2023-01-03T10:23:36.588Z,102300.19
2023-01-03T10:26:09.360Z,102301.75
2023-01-03T10:28:41.300Z,102299.91
2023-01-03T10:31:27.647Z,102310.88
2023-01-03T10:33:54.643Z,102308.81
2023-01-03T10:36:22.127Z,102304.53
2023-01-03T10:38:53.180Z,102301.31
2023-01-03T10:41:37.493Z,102290.03
2023-01-03T10:44:04.281Z,102301.56
2023-01-03T10:46:31.987Z,102293.66
2023-01-03T10:49:28.033Z,102286.22
2023-01-03T10:52:05.385Z,102286.22
2023-01-03T10:54:42.549Z,102288.50
2023-01-03T10:57:29.643Z,102295.66
2023-01-03T10:59:56.337Z,102299.38
2023-01-03T11:02:25.226Z,102300.84
2023-01-03T11:05:07.723Z,102292.44
2023-01-03T11:07:34.269Z,102287.91
2023-01-03T11:10:00.680Z,102282.47
2023-01-03T11:12:29.685Z,102288.84
2023-01-03T11:14:57.663Z,102289.22
2023-01-03T11:17:26.775Z,102287.19
2023-01-03T11:19:53.603Z,102285.53
2023-01-03T11:22:29.763Z,102292.28
2023-01-03T11:25:17.569Z,102280.81
2023-01-03T11:28:15.677Z,102286.50
2023-01-03T11:30:42.553Z,102280.88
2023-01-03T11:33:08.984Z,102280.72
2023-01-03T11:35:50.916Z,102269.97
2023-01-03T11:38:36.339Z,102268.59
2023-01-03T11:41:02.919Z,102270.50
2023-01-03T11:43:38.676Z,102274.34
2023-01-03T11:46:29.551Z,102272.63
2023-01-03T11:49:08.587Z,102265.16
2023-01-03T11:51:46.724Z,102262.91
2023-01-03T11:54:31.943Z,102258.47
2023-01-03T11:57:02.717Z,102259.63
2023-01-03T11:59:38.467Z,102261.03
2023-01-03T12:02:29.761Z,102259.41
2023-01-03T12:05:02.867Z,102259.41
2023-01-03T12:07:48.370Z,102259.13
2023-01-03T12:10:34.122Z,102253.56
2023-01-03T12:13:00.658Z,102254.78
2023-01-03T12:15:33.661Z,102268.00
2023-01-03T12:18:09.354Z,102258.75
2023-01-03T12:20:41.487Z,102253.16
2023-01-03T12:23:12.822Z,102283.84
2023-01-03T12:25:43.516Z,102253.28
2023-01-03T12:28:14.439Z,102254.28
2023-01-03T12:30:41.826Z,102254.19
2023-01-03T12:33:18.570Z,102254.06
2023-01-03T12:35:48.626Z,102245.66
2023-01-03T12:38:18.956Z,102249.13
2023-01-03T12:41:14.975Z,102240.19
2023-01-03T12:43:46.903Z,102231.44
2023-01-03T12:46:18.818Z,102250.63
2023-01-03T12:48:54.110Z,102247.59
2023-01-03T12:51:23.060Z,102249.94
2023-01-03T12:53:50.187Z,102237.63
2023-01-03T12:56:29.750Z,102236.41
2023-01-03T12:58:59.652Z,102232.81
2023-01-03T13:01:48.793Z,102237.78
2023-01-03T13:04:24.330Z,102233.25
2023-01-03T13:07:02.761Z,102233.91
2023-01-03T13:09:33.333Z,102234.72
2023-01-03T13:12:04.281Z,102231.31
2023-01-03T13:14:49.765Z,102233.44
2023-01-03T13:17:18.360Z,102231.69
2023-01-03T13:19:57.142Z,102229.34
2023-01-03T13:22:35.933Z,102222.25
2023-01-03T13:25:25.294Z,102221.47
2023-01-03T13:27:52.754Z,102219.22
2023-01-03T13:30:23.671Z,102218.06
2023-01-03T13:33:09.023Z,102212.88
2023-01-03T13:35:52.474Z,102220.00
2023-01-03T13:38:39.120Z,102221.44
2023-01-03T13:41:18.463Z,102215.22
2023-01-03T13:43:48.580Z,102203.91
2023-01-03T13:46:22.738Z,102204.97
2023-01-03T13:48:58.070Z,102206.41
2023-01-03T13:51:26.656Z,102216.63
2023-01-03T13:53:54.682Z,102212.63
2023-01-03T13:56:25.957Z,102208.00
2023-01-03T13:58:55.014Z,102215.91
2023-01-03T14:01:30.955Z,102221.25
2023-01-03T14:03:57.930Z,102222.81
2023-01-03T14:06:33.423Z,102211.88
2023-01-03T14:09:09.871Z,102214.44
2023-01-03T14:12:09.269Z,102216.34
2023-01-03T14:14:38.351Z,102219.94
2023-01-03T14:17:14.292Z,102211.09
2023-01-03T14:19:43.293Z,102216.47
2023-01-03T14:22:28.011Z,102211.25
2023-01-03T14:24:59.562Z,102217.38
2023-01-03T14:27:35.922Z,102221.53
2023-01-03T14:30:03.633Z,102219.81
2023-01-03T14:32:35.108Z,102212.25
2023-01-03T14:35:03.279Z,102221.75
2023-01-03T14:37:33.139Z,102228.09
2023-01-03T14:40:04.439Z,102222.03
2023-01-03T14:42:32.085Z,102223.72
2023-01-03T14:45:00.723Z,102228.69
2023-01-03T14:47:36.156Z,102236.38
2023-01-03T14:50:04.365Z,102230.91
2023-01-03T14:52:33.532Z,102226.03
2023-01-03T14:55:06.629Z,102217.88
2023-01-03T14:57:38.274Z,102219.88
2023-01-03T15:00:09.623Z,102221.56
2023-01-03T15:02:39.108Z,102221.06
2023-01-03T15:05:27.907Z,102226.81
2023-01-03T15:07:54.962Z,102240.44
2023-01-03T15:10:22.137Z,102227.53
2023-01-03T15:12:51.142Z,102237.03
2023-01-03T15:15:28.503Z,102235.09
2023-01-03T15:18:01.504Z,102225.25
2023-01-03T15:20:34.073Z,102229.13
2023-01-03T15:23:00.643Z,102221.44
2023-01-03T15:25:47.466Z,102220.44
2023-01-03T15:28:13.906Z,102226.91
2023-01-03T15:30:48.342Z,102220.44
2023-01-03T15:33:34.267Z,102222.41
2023-01-03T15:36:03.053Z,102211.19
2023-01-03T15:38:29.724Z,102209.38
2023-01-03T15:40:56.395Z,102207.59
2023-01-03T15:43:27.006Z,102212.78
2023-01-03T15:46:04.070Z,102215.72
2023-01-03T15:48:37.109Z,102215.44
2023-01-03T15:51:05.073Z,102207.72
2023-01-03T15:53:39.230Z,102206.41
2023-01-03T15:56:31.177Z,102202.50
2023-01-03T15:58:57.897Z,102213.72
2023-01-03T16:01:25.130Z,102199.97
2023-01-03T16:03:53.682Z,102206.31
2023-01-03T16:06:20.415Z,102206.41
2023-01-03T16:08:47.667Z,102210.78
2023-01-03T16:11:34.919Z,102203.06
2023-01-03T16:14:07.025Z,102203.91
2023-01-03T16:16:36.202Z,102214.03
2023-01-03T16:19:04.736Z,102208.94
2023-01-03T16:21:32.343Z,102209.78
2023-01-03T16:24:00.607Z,102211.78
2023-01-03T16:26:27.423Z,102223.84
2023-01-03T16:28:54.274Z,102201.06
2023-01-03T16:31:28.322Z,102210.03
2023-01-03T16:33:55.923Z,102201.59
2023-01-03T16:36:36.708Z,102205.88
2023-01-03T16:39:06.350Z,102202.41
2023-01-03T16:41:34.931Z,102200.94
2023-01-03T16:44:01.644Z,102197.31
2023-01-03T16:46:30.090Z,102193.09
2023-01-03T16:48:58.663Z,102194.50
2023-01-03T16:51:27.280Z,102197.47
2023-01-03T16:53:55.096Z,102194.69
2023-01-03T16:56:22.018Z,102203.41
2023-01-03T16:58:49.030Z,102204.38
2023-01-03T17:01:15.776Z,102204.38
2023-01-03T17:03:43.089Z,102195.88
2023-01-03T17:06:23.541Z,102178.66
2023-01-03T17:08:50.481Z,102179.69
2023-01-03T17:11:17.535Z,102182.53
2023-01-03T17:13:46.273Z,102170.91
2023-01-03T17:16:17.814Z,102168.78
2023-01-03T17:18:46.916Z,102166.34
2023-01-03T17:21:20.778Z,102165.78
2023-01-03T17:23:47.979Z,102160.84
2023-01-03T17:26:17.291Z,102171.91
2023-01-03T17:28:45.066Z,102165.22
2023-01-03T17:31:16.523Z,102168.56
2023-01-03T17:33:43.127Z,102165.16
2023-01-03T17:36:17.092Z,102157.56
2023-01-03T17:38:44.299Z,102164.41
2023-01-03T17:41:18.660Z,102155.53
2023-01-03T17:43:45.633Z,102151.38
2023-01-03T17:46:39.366Z,102149.38
2023-01-03T17:52:16.677Z,102150.19
2023-01-03T17:54:43.693Z,102142.81
2023-01-03T17:57:12.613Z,102145.88
2023-01-03T17:59:39.696Z,102151.38
2023-01-03T18:02:19.763Z,102147.09
2023-01-03T18:05:14.144Z,102148.00
2023-01-03T18:07:34.592Z,102134.25
2023-01-03T18:10:01.601Z,102140.00
2023-01-03T18:12:28.100Z,102137.91
2023-01-03T18:14:55.809Z,102137.75
2023-01-03T18:17:22.988Z,102136.81
2023-01-03T18:19:49.858Z,102134.41
2023-01-03T18:22:18.361Z,102130.53
2023-01-03T18:24:45.554Z,102120.34
2023-01-03T18:27:14.775Z,102126.69
2023-01-03T18:29:43.036Z,102128.25
2023-01-03T18:32:29.428Z,102122.50
2023-01-03T18:34:56.549Z,102117.06
2023-01-03T18:37:24.594Z,102100.47
2023-01-03T18:39:52.219Z,102105.41
2023-01-03T18:42:39.995Z,102102.19
2023-01-03T18:45:07.630Z,102099.03
2023-01-03T18:47:34.464Z,102104.91
2023-01-03T18:50:01.308Z,102095.63
2023-01-03T18:52:33.249Z,102095.41
2023-01-03T18:54:59.784Z,102093.84
2023-01-03T18:57:29.464Z,102096.03
2023-01-03T18:59:56.149Z,102099.19
2023-01-03T19:02:22.974Z,102098.78
2023-01-03T19:04:52.494Z,102095.59
2023-01-03T19:07:22.233Z,102086.81
2023-01-03T19:09:52.034Z,102081.28
2023-01-03T19:12:19.139Z,102078.50
2023-01-03T19:14:46.895Z,102086.59
2023-01-03T19:17:17.935Z,102080.34
2023-01-03T19:19:45.282Z,102082.44
2023-01-03T19:22:28.393Z,102082.22
2023-01-03T19:24:57.208Z,102071.81
2023-01-03T19:27:35.488Z,102070.09
2023-01-03T19:30:03.148Z,102064.16
2023-01-03T19:32:29.979Z,102065.91
2023-01-03T19:34:56.678Z,102055.59
2023-01-03T19:37:23.595Z,102060.72
2023-01-03T19:39:50.092Z,102058.81
2023-01-03T19:42:36.596Z,102058.53
2023-01-03T19:45:11.656Z,102050.88
2023-01-03T19:47:39.220Z,102046.81
2023-01-03T19:50:17.323Z,102045.31
2023-01-03T19:52:43.695Z,102043.00
2023-01-03T19:55:11.537Z,102036.94
2023-01-03T19:57:40.216Z,102025.38
2023-01-03T20:00:07.230Z,102018.97
2023-01-03T20:02:34.279Z,102022.81
2023-01-03T20:05:01.300Z,102015.03
2023-01-03T20:07:28.037Z,102021.72
2023-01-03T20:09:54.732Z,102011.81
2023-01-03T20:12:26.124Z,102013.78
2023-01-03T20:14:54.843Z,102019.13
2023-01-03T20:17:22.440Z,102013.19
2023-01-03T20:19:49.260Z,102007.75
2023-01-03T20:22:37.695Z,102009.84
2023-01-03T20:25:03.491Z,102005.78
2023-01-03T20:27:30.223Z,101991.19
2023-01-03T20:29:56.764Z,101995.38
2023-01-03T20:32:24.881Z,101994.09
2023-01-03T20:34:51.560Z,101991.00
2023-01-03T20:37:21.919Z,101992.78
2023-01-03T20:39:49.638Z,101988.88
2023-01-03T20:42:22.051Z,101984.19
2023-01-03T20:44:49.543Z,101982.09
2023-01-03T20:47:25.449Z,101969.63
2023-01-03T20:49:54.004Z,101957.03
2023-01-03T20:52:21.238Z,101957.41
2023-01-03T20:54:48.439Z,101950.66
2023-01-03T20:57:16.631Z,101953.84
2023-01-03T20:59:44.538Z,101946.03
2023-01-03T21:02:11.876Z,101937.03
2023-01-03T21:04:39.694Z,101936.50
2023-01-03T21:07:11.625Z,101941.50
2023-01-03T21:09:39.176Z,101933.34
2023-01-03T21:12:06.492Z,101932.06
2023-01-03T21:14:33.446Z,101929.34
2023-01-03T21:17:01.360Z,101924.50
2023-01-03T21:19:28.131Z,101913.41
2023-01-03T21:21:55.545Z,101902.47
2023-01-03T21:24:23.259Z,101896.50
2023-01-03T21:26:50.779Z,101894.91
2023-01-03T21:29:18.343Z,101897.13
2023-01-03T21:31:45.521Z,101891.72
2023-01-03T21:34:25.594Z,101880.22
2023-01-03T21:36:52.896Z,101877.16
2023-01-03T21:39:19.959Z,101872.63
2023-01-03T21:42:06.735Z,101871.66
2023-01-03T21:44:33.187Z,101869.09
2023-01-03T21:46:59.992Z,101879.84
2023-01-03T21:49:27.161Z,101878.97
2023-01-03T21:51:53.560Z,101875.34
2023-01-03T21:54:20.509Z,101882.44
2023-01-03T21:56:47.338Z,101871.34
2023-01-03T21:59:15.109Z,101871.50
2023-01-03T22:02:01.974Z,101860.25
2023-01-03T22:04:28.772Z,101879.72
2023-01-03T22:07:01.584Z,101869.88
2023-01-03T22:09:47.741Z,101871.09
2023-01-03T22:12:15.939Z,101860.38
2023-01-03T22:14:43.235Z,101854.72
2023-01-03T22:17:10.070Z,101840.63
2023-01-03T22:19:37.068Z,101848.09
2023-01-03T22:22:04.912Z,101845.09
2023-01-03T22:24:31.905Z,101839.66
2023-01-03T22:26:59.887Z,101839.97
2023-01-03T22:29:26.488Z,101832.25
2023-01-03T22:31:53.569Z,101824.84
2023-01-03T22:34:20.798Z,101824.53
2023-01-03T22:36:48.380Z,101819.00
2023-01-03T22:39:16.349Z,101803.78
2023-01-03T22:41:44.502Z,101808.22
2023-01-03T22:44:12.809Z,101801.66
2023-01-03T22:46:40.810Z,101798.91
2023-01-03T22:49:07.401Z,101781.53
2023-01-03T22:51:39.534Z,101769.53
2023-01-03T22:54:06.521Z,101763.94
2023-01-03T22:56:34.352Z,101761.63
2023-01-03T22:59:01.453Z,101766.34
2023-01-03T23:01:28.458Z,101762.41
2023-01-03T23:04:00.102Z,101774.75
2023-01-03T23:06:28.856Z,101763.78
2023-01-03T23:08:55.715Z,101759.41
2023-01-03T23:11:43.458Z,101757.19
2023-01-03T23:14:11.682Z,101750.34
2023-01-03T23:16:38.273Z,101752.66
2023-01-03T23:19:06.602Z,101760.59
2023-01-03T23:21:34.043Z,101755.78
2023-01-03T23:24:01.126Z,101752.88
2023-01-03T23:26:27.631Z,101753.31
2023-01-03T23:28:54.868Z,101734.38
2023-01-03T23:31:21.734Z,101734.09
2023-01-03T23:33:48.320Z,101732.63
2023-01-03T23:36:16.462Z,101722.28
2023-01-03T23:38:43.818Z,101716.59
2023-01-03T23:41:10.421Z,101694.88
2023-01-03T23:43:37.592Z,101688.72
2023-01-03T23:46:04.686Z,101679.69
2023-01-03T23:48:31.734Z,101678.28
2023-01-03T23:51:02.382Z,101662.53
2023-01-03T23:53:29.028Z,101653.34
2023-01-03T23:55:55.586Z,101659.75
2023-01-03T23:58:22.176Z,101639.03
